createdAt,value
2018-03-14T00:00:31.622Z,9.98
2018-03-14T00:03:10.992Z,9.20
2018-03-14T00:05:50.199Z,10.18
2018-03-14T00:08:28.426Z,9.30
2018-03-14T00:10:56.108Z,11.25
2018-03-14T00:13:22.983Z,10.97
2018-03-14T00:15:50.679Z,10.85
2018-03-14T00:18:17.644Z,11.05
2018-03-14T00:20:44.662Z,9.68
2018-03-14T00:23:11.574Z,9.90
2018-03-14T00:25:39.356Z,9.00
2018-03-14T00:28:06.263Z,9.52
2018-03-14T00:30:33.297Z,10.10
2018-03-14T00:33:00.208Z,8.33
2018-03-14T00:35:27.168Z,9.50
2018-03-14T00:37:54.120Z,10.43
2018-03-14T00:40:21.050Z,10.20
2018-03-14T00:42:48.005Z,9.68
2018-03-14T00:45:14.980Z,10.43
2018-03-14T00:47:41.885Z,11.80
2018-03-14T00:50:08.848Z,12.10
2018-03-14T00:52:35.813Z,10.63
2018-03-14T00:55:02.759Z,12.63
2018-03-14T00:57:29.718Z,11.00
2018-03-14T00:59:56.691Z,12.27
2018-03-14T01:02:23.743Z,11.67
2018-03-14T01:04:50.708Z,11.05
2018-03-14T01:07:17.595Z,11.68
2018-03-14T01:09:44.566Z,11.00
2018-03-14T01:12:11.536Z,11.32
2018-03-14T01:14:38.523Z,12.13
2018-03-14T01:17:05.426Z,11.20
2018-03-14T01:19:32.397Z,11.95
2018-03-14T01:21:59.317Z,12.23
2018-03-14T01:24:27.015Z,12.05
2018-03-14T01:26:53.968Z,11.55
2018-03-14T01:29:20.919Z,12.13
2018-03-14T01:31:47.801Z,12.32
2018-03-14T01:34:14.763Z,12.50
2018-03-14T01:36:41.692Z,13.45
2018-03-14T01:39:08.684Z,12.50
2018-03-14T01:41:35.673Z,14.30
2018-03-14T01:44:02.703Z,12.63
2018-03-14T01:46:29.647Z,14.87
2018-03-14T01:48:56.558Z,14.25
2018-03-14T01:51:24.243Z,14.67
2018-03-14T01:53:51.122Z,12.20
2018-03-14T01:56:18.866Z,14.00
2018-03-14T01:58:45.874Z,13.50
2018-03-14T02:01:13.503Z,15.35
2018-03-14T02:03:40.479Z,12.60
2018-03-14T02:06:07.392Z,13.82
2018-03-14T02:08:35.048Z,13.03
2018-03-14T02:11:02.020Z,14.07
2018-03-14T02:13:28.937Z,13.10
2018-03-14T02:15:55.923Z,13.00
2018-03-14T02:18:22.804Z,13.17
2018-03-14T02:20:49.763Z,12.50
2018-03-14T02:23:16.651Z,11.82
2018-03-14T02:25:43.603Z,12.10
2018-03-14T02:28:10.485Z,13.20
2018-03-14T02:30:37.444Z,13.60
2018-03-14T02:33:04.370Z,13.57
2018-03-14T02:35:31.355Z,12.27
2018-03-14T02:37:58.372Z,11.80
2018-03-14T02:40:25.271Z,11.70
2018-03-14T02:42:52.227Z,12.10
2018-03-14T02:45:19.187Z,13.68
2018-03-14T02:47:46.874Z,13.05
2018-03-14T02:50:13.751Z,13.07
2018-03-14T02:52:40.695Z,11.10
2018-03-14T02:55:07.623Z,11.82
2018-03-14T02:57:34.623Z,11.83
2018-03-14T03:00:01.506Z,13.68
2018-03-14T03:02:28.461Z,12.27
2018-03-14T03:04:55.334Z,11.32
2018-03-14T03:07:22.219Z,10.27
2018-03-14T03:09:49.907Z,11.32
2018-03-14T03:12:16.778Z,12.00
2018-03-14T03:14:43.780Z,11.45
2018-03-14T03:17:10.652Z,11.00
2018-03-14T03:19:37.586Z,11.40
2018-03-14T03:22:04.565Z,12.17
2018-03-14T03:24:31.511Z,10.55
2018-03-14T03:26:58.454Z,10.55
2018-03-14T03:29:25.337Z,11.40
2018-03-14T03:31:52.272Z,10.77
2018-03-14T03:34:19.218Z,10.88
2018-03-14T03:36:46.108Z,11.30
2018-03-14T03:39:13.071Z,10.40
2018-03-14T03:41:39.940Z,10.60
2018-03-14T03:44:06.872Z,10.75
2018-03-14T03:46:33.823Z,10.40
2018-03-14T03:49:00.686Z,10.05
2018-03-14T03:51:27.633Z,11.05
2018-03-14T03:53:54.499Z,11.60
2018-03-14T03:56:21.373Z,10.68
2018-03-14T03:58:48.319Z,11.20
2018-03-14T04:01:15.199Z,9.65
2018-03-14T04:03:42.157Z,11.00
2018-03-14T04:06:09.099Z,10.20
2018-03-14T04:08:36.046Z,10.67
2018-03-14T04:11:03.023Z,12.00
2018-03-14T04:13:30.717Z,9.20
2018-03-14T04:15:57.598Z,10.30
2018-03-14T04:18:24.552Z,11.55
2018-03-14T04:20:51.496Z,9.73
2018-03-14T04:23:18.436Z,10.82
2018-03-14T04:25:45.389Z,10.00
2018-03-14T04:28:12.260Z,9.20
2018-03-14T04:30:39.230Z,10.40
2018-03-14T04:33:06.114Z,9.50
2018-03-14T04:35:32.988Z,10.05
2018-03-14T04:37:59.927Z,10.00
2018-03-14T04:40:26.794Z,10.30
2018-03-14T04:42:54.412Z,9.50
2018-03-14T04:45:21.359Z,7.95
2018-03-14T04:47:48.231Z,9.40
2018-03-14T04:50:15.171Z,10.97
2018-03-14T04:52:42.046Z,9.45
2018-03-14T04:55:09.722Z,9.63
2018-03-14T04:57:36.601Z,9.17
2018-03-14T05:00:03.626Z,8.98
2018-03-14T05:02:30.498Z,9.25
2018-03-14T05:04:57.442Z,10.73
2018-03-14T05:07:24.525Z,8.52
2018-03-14T05:09:51.400Z,10.10
2018-03-14T05:12:18.351Z,8.47
2018-03-14T05:14:45.290Z,8.18
2018-03-14T05:17:12.162Z,9.30
2018-03-14T05:19:39.096Z,8.98
2018-03-14T05:22:06.035Z,8.63
2018-03-14T05:24:32.963Z,10.38
2018-03-14T05:27:01.088Z,8.60
2018-03-14T05:29:28.043Z,10.98
2018-03-14T05:31:54.926Z,10.55
2018-03-14T05:34:25.406Z,10.00
2018-03-14T05:36:55.894Z,11.35
2018-03-14T05:39:22.846Z,10.30
2018-03-14T05:41:49.827Z,10.32
2018-03-14T05:44:16.714Z,9.87
2018-03-14T05:46:44.399Z,9.25
2018-03-14T05:49:11.282Z,8.82
2018-03-14T05:51:39.734Z,10.15
2018-03-14T05:54:06.724Z,9.98
2018-03-14T05:56:34.458Z,12.00
2018-03-14T05:59:01.353Z,11.63
2018-03-14T06:01:39.169Z,11.55
2018-03-14T06:04:19.204Z,10.55
2018-03-14T06:06:49.817Z,13.02
2018-03-14T06:09:16.931Z,10.00
2018-03-14T06:11:43.791Z,11.73
2018-03-14T06:14:23.509Z,9.63
2018-03-14T06:16:52.437Z,11.43
2018-03-14T06:19:20.896Z,11.47
2018-03-14T06:21:58.202Z,11.77
2018-03-14T06:24:27.487Z,11.10
2018-03-14T06:26:55.067Z,11.07
2018-03-14T06:29:23.525Z,12.87
2018-03-14T06:31:51.415Z,12.20
2018-03-14T06:34:22.547Z,11.60
2018-03-14T06:36:50.119Z,10.17
2018-03-14T06:39:17.887Z,9.80
2018-03-14T06:41:46.162Z,10.13
2018-03-14T06:44:14.587Z,13.83
2018-03-14T06:46:43.109Z,11.00
2018-03-14T06:49:11.006Z,11.12
2018-03-14T06:51:39.274Z,10.38
2018-03-14T06:54:07.899Z,23.70
2018-03-14T06:56:35.295Z,16.03
2018-03-14T06:59:15.043Z,10.90
2018-03-14T07:01:54.001Z,11.13
2018-03-14T07:04:33.035Z,11.90
2018-03-14T07:07:00.012Z,10.60
2018-03-14T07:09:26.899Z,9.93
2018-03-14T07:11:53.818Z,10.83
2018-03-14T07:14:21.602Z,10.73
2018-03-14T07:16:48.575Z,10.70
2018-03-14T07:19:15.542Z,11.03
2018-03-14T07:21:42.407Z,12.07
2018-03-14T07:24:09.461Z,11.70
2018-03-14T07:26:36.372Z,10.60
2018-03-14T07:29:03.320Z,10.50
2018-03-14T07:31:30.255Z,10.80
2018-03-14T07:33:57.193Z,9.60
2018-03-14T07:36:24.125Z,9.80
2018-03-14T07:38:51.047Z,11.10
2018-03-14T07:41:18.027Z,9.93
2018-03-14T07:43:44.884Z,9.90
2018-03-14T07:46:14.158Z,10.70
2018-03-14T07:48:43.144Z,10.30
2018-03-14T07:51:11.449Z,9.60
2018-03-14T07:53:39.215Z,11.80
2018-03-14T07:56:06.647Z,9.80
2018-03-14T07:58:34.235Z,10.00
2018-03-14T08:01:01.227Z,9.83
2018-03-14T08:03:28.083Z,9.53
2018-03-14T08:06:05.861Z,10.10
2018-03-14T08:08:32.738Z,10.20
2018-03-14T08:10:59.766Z,10.10
2018-03-14T08:13:26.729Z,9.30
2018-03-14T08:15:53.656Z,10.00
2018-03-14T08:18:20.662Z,10.17
2018-03-14T08:20:47.634Z,9.97
2018-03-14T08:23:19.414Z,9.20
2018-03-14T08:25:46.263Z,9.80
2018-03-14T08:28:13.962Z,12.30
2018-03-14T08:30:40.847Z,10.33
2018-03-14T08:33:07.878Z,9.70
2018-03-14T08:35:34.742Z,10.00
2018-03-14T08:38:01.688Z,10.40
2018-03-14T08:40:28.583Z,10.90
2018-03-14T08:42:55.505Z,10.80
2018-03-14T08:45:22.423Z,10.50
2018-03-14T08:47:49.361Z,10.53
2018-03-14T08:50:16.231Z,10.30
2018-03-14T08:52:43.204Z,11.30
2018-03-14T08:55:10.129Z,11.33
2018-03-14T08:57:36.988Z,10.40
2018-03-14T09:00:03.985Z,11.17
2018-03-14T09:02:30.932Z,11.70
2018-03-14T09:04:57.975Z,12.70
2018-03-14T09:07:25.256Z,11.17
2018-03-14T09:09:52.375Z,12.30
2018-03-14T09:12:19.322Z,12.70
2018-03-14T09:14:46.243Z,12.70
2018-03-14T09:17:13.108Z,12.60
2018-03-14T09:19:40.132Z,12.37
2018-03-14T09:22:18.803Z,11.20
2018-03-14T09:24:57.516Z,15.80
2018-03-14T09:27:26.193Z,14.27
2018-03-14T09:29:56.224Z,12.40
2018-03-14T09:32:35.347Z,12.33
2018-03-14T09:35:14.746Z,12.27
2018-03-14T09:37:54.772Z,12.50
2018-03-14T09:40:34.267Z,10.73
2018-03-14T09:43:12.962Z,12.43
2018-03-14T09:45:51.327Z,12.90
2018-03-14T09:48:19.066Z,14.43
2018-03-14T09:50:45.951Z,17.00
2018-03-14T09:53:12.997Z,12.10
2018-03-14T09:55:41.030Z,11.60
2018-03-14T09:58:11.897Z,11.53
2018-03-14T10:03:17.007Z,10.83
2018-03-14T10:05:44.094Z,10.10
2018-03-14T10:08:11.559Z,11.50
2018-03-14T10:10:47.589Z,10.30
2018-03-14T10:13:16.688Z,10.10
2018-03-14T10:15:43.972Z,9.47
2018-03-14T10:18:11.037Z,8.13
2018-03-14T10:20:39.629Z,8.50
2018-03-14T10:23:06.709Z,8.87
2018-03-14T10:25:34.730Z,9.90
2018-03-14T10:28:01.820Z,8.33
2018-03-14T10:30:31.506Z,9.00
2018-03-14T10:32:58.853Z,8.50
2018-03-14T10:35:25.936Z,10.47
2018-03-14T10:37:53.888Z,8.57
2018-03-14T10:40:21.667Z,10.27
2018-03-14T10:42:49.744Z,8.80
2018-03-14T10:45:16.672Z,9.63
2018-03-14T10:47:51.030Z,8.47
2018-03-14T10:50:27.227Z,8.47
2018-03-14T10:52:55.863Z,8.90
2018-03-14T10:55:23.609Z,9.10
2018-03-14T10:57:50.841Z,9.60
2018-03-14T11:00:23.906Z,9.07
2018-03-14T11:02:52.584Z,8.67
2018-03-14T11:05:25.338Z,7.83
2018-03-14T11:07:52.504Z,9.20
2018-03-14T11:10:21.698Z,9.20
2018-03-14T11:12:49.553Z,8.00
2018-03-14T11:15:24.319Z,7.63
2018-03-14T11:17:51.439Z,9.30
2018-03-14T11:20:18.587Z,9.60
2018-03-14T11:22:45.636Z,8.43
2018-03-14T11:25:13.595Z,7.97
2018-03-14T11:27:42.517Z,7.50
2018-03-14T11:30:10.253Z,8.00
2018-03-14T11:32:37.497Z,9.23
2018-03-14T11:35:04.563Z,7.97
2018-03-14T11:37:31.747Z,8.33
2018-03-14T11:39:58.882Z,7.90
2018-03-14T11:42:26.082Z,10.00
2018-03-14T11:44:53.316Z,9.07
2018-03-14T11:47:20.361Z,11.47
2018-03-14T11:49:47.432Z,14.60
2018-03-14T11:52:14.648Z,11.37
2018-03-14T11:54:41.602Z,10.30
2018-03-14T11:57:08.482Z,10.20
2018-03-14T11:59:35.419Z,10.83
2018-03-14T12:02:02.304Z,10.43
2018-03-14T12:04:29.969Z,11.63
2018-03-14T12:06:57.580Z,10.30
2018-03-14T12:09:24.544Z,8.73
2018-03-14T12:11:51.409Z,10.33
2018-03-14T12:14:19.032Z,10.33
2018-03-14T12:16:45.992Z,8.47
2018-03-14T12:19:12.879Z,8.30
2018-03-14T12:21:39.852Z,8.33
2018-03-14T12:24:06.770Z,7.73
2018-03-14T12:26:33.776Z,8.50
2018-03-14T12:29:00.742Z,11.77
2018-03-14T12:31:27.800Z,10.10
2018-03-14T12:33:54.714Z,8.97
2018-03-14T12:36:21.660Z,8.10
2018-03-14T12:38:48.545Z,8.20
2018-03-14T12:41:15.499Z,6.97
2018-03-14T12:43:42.451Z,8.03
2018-03-14T12:46:09.426Z,8.37
2018-03-14T12:48:36.417Z,8.50
2018-03-14T12:51:03.288Z,8.10
2018-03-14T12:53:30.210Z,8.33
2018-03-14T12:55:57.076Z,7.70
2018-03-14T12:58:24.055Z,8.07
2018-03-14T13:00:51.042Z,7.80
2018-03-14T13:03:18.065Z,8.43
2018-03-14T13:05:44.932Z,8.13
2018-03-14T13:08:11.812Z,8.57
2018-03-14T13:10:38.818Z,8.63
2018-03-14T13:13:05.767Z,9.10
2018-03-14T13:15:32.647Z,8.97
2018-03-14T13:18:00.419Z,8.10
2018-03-14T13:20:27.552Z,7.80
2018-03-14T13:22:54.519Z,8.27
2018-03-14T13:25:21.536Z,7.33
2018-03-14T13:27:48.487Z,6.93
2018-03-14T13:30:15.447Z,7.40
2018-03-14T13:32:43.103Z,7.60
2018-03-14T13:35:12.055Z,7.30
2018-03-14T13:37:39.203Z,6.80
2018-03-14T13:40:06.200Z,8.70
2018-03-14T13:42:38.164Z,7.60
2018-03-14T13:45:05.876Z,6.63
2018-03-14T13:47:34.113Z,6.63
2018-03-14T13:50:01.037Z,7.40
2018-03-14T13:52:28.660Z,7.87
2018-03-14T13:54:55.630Z,7.83
2018-03-14T13:57:22.557Z,7.13
2018-03-14T13:59:49.766Z,6.80
2018-03-14T14:02:16.635Z,8.70
2018-03-14T14:04:43.892Z,8.40
2018-03-14T14:07:21.470Z,7.43
2018-03-14T14:10:00.213Z,8.80
2018-03-14T14:12:27.852Z,7.80
2018-03-14T14:15:05.052Z,7.57
2018-03-14T14:17:39.567Z,7.13
2018-03-14T14:20:18.936Z,6.90
2018-03-14T14:22:58.064Z,6.90
2018-03-14T14:25:33.992Z,7.03
2018-03-14T14:28:09.079Z,7.50
2018-03-14T14:30:36.708Z,7.53
2018-03-14T14:33:03.646Z,7.17
2018-03-14T14:35:30.713Z,8.23
2018-03-14T14:37:57.595Z,8.30
2018-03-14T14:40:24.940Z,10.23
2018-03-14T14:42:51.795Z,8.87
2018-03-14T14:45:20.489Z,8.23
2018-03-14T14:47:50.572Z,8.93
2018-03-14T14:50:18.010Z,7.97
2018-03-14T14:52:44.894Z,8.63
2018-03-14T14:55:20.897Z,7.50
2018-03-14T14:57:55.326Z,8.77
2018-03-14T15:00:31.530Z,9.63
2018-03-14T15:03:01.184Z,7.97
2018-03-14T15:05:28.148Z,9.47
2018-03-14T15:07:55.092Z,8.83
2018-03-14T15:10:21.974Z,7.60
2018-03-14T15:12:48.912Z,8.70
2018-03-14T15:15:15.879Z,15.40
2018-03-14T15:17:42.823Z,18.03
2018-03-14T15:20:09.762Z,13.43
2018-03-14T15:22:36.612Z,10.87
2018-03-14T15:25:03.729Z,11.47
2018-03-14T15:27:30.721Z,10.33
2018-03-14T15:29:57.596Z,9.13
2018-03-14T15:32:24.614Z,9.63
2018-03-14T15:34:51.564Z,10.03
2018-03-14T15:37:19.253Z,8.30
2018-03-14T15:39:46.177Z,8.53
2018-03-14T15:42:13.866Z,8.37
2018-03-14T15:44:40.748Z,8.80
2018-03-14T15:47:07.683Z,8.73
2018-03-14T15:49:34.553Z,10.13
2018-03-14T15:52:01.488Z,10.67
2018-03-14T15:54:28.950Z,8.90
2018-03-14T15:56:56.277Z,8.53
2018-03-14T15:59:35.999Z,9.07
2018-03-14T16:02:03.909Z,8.60
2018-03-14T16:04:31.008Z,7.10
2018-03-14T16:07:10.211Z,9.03
2018-03-14T16:09:40.714Z,7.80
2018-03-14T16:12:08.321Z,8.40
2018-03-14T16:14:46.993Z,8.70
2018-03-14T16:17:14.628Z,9.00
2018-03-14T16:19:53.604Z,9.37
2018-03-14T16:22:31.365Z,9.33
2018-03-14T16:24:58.947Z,8.40
2018-03-14T16:27:25.869Z,9.30
2018-03-14T16:30:03.830Z,8.40
2018-03-14T16:32:42.976Z,9.10
2018-03-14T16:35:22.321Z,9.90
2018-03-14T16:38:00.288Z,9.47
2018-03-14T16:40:30.930Z,9.70
2018-03-14T16:43:06.987Z,8.40
2018-03-14T16:45:36.080Z,9.43
2018-03-14T16:48:13.766Z,10.00
2018-03-14T16:50:48.010Z,9.43
2018-03-14T16:53:21.003Z,10.40
2018-03-14T16:55:53.447Z,10.17
2018-03-14T16:58:29.282Z,10.57
2018-03-14T17:00:56.917Z,9.53
2018-03-14T17:03:23.785Z,8.90
2018-03-14T17:05:50.708Z,9.40
2018-03-14T17:08:18.695Z,9.47
2018-03-14T17:10:46.225Z,8.43
2018-03-14T17:13:13.167Z,8.50
2018-03-14T17:15:42.792Z,9.40
2018-03-14T17:18:09.784Z,9.60
2018-03-14T17:20:36.786Z,10.00
2018-03-14T17:23:06.134Z,10.23
2018-03-14T17:25:33.472Z,10.37
2018-03-14T17:28:00.460Z,10.87
2018-03-14T17:30:28.337Z,11.33
2018-03-14T17:32:55.415Z,9.70
2018-03-14T17:35:23.059Z,10.53
2018-03-14T17:37:49.936Z,10.00
2018-03-14T17:40:25.517Z,9.90
2018-03-14T17:42:52.442Z,9.90
2018-03-14T17:45:19.425Z,9.27
2018-03-14T17:47:50.308Z,10.80
2018-03-14T17:50:23.997Z,13.10
2018-03-14T17:52:53.075Z,12.83
2018-03-14T17:55:20.806Z,10.80
2018-03-14T17:57:47.767Z,10.93
2018-03-14T18:00:14.746Z,12.63
2018-03-14T18:02:41.747Z,11.60
2018-03-14T18:05:08.687Z,11.10
2018-03-14T18:07:35.695Z,12.83
2018-03-14T18:10:02.668Z,14.17
2018-03-14T18:12:29.604Z,14.80
2018-03-14T18:14:57.332Z,13.63
2018-03-14T18:17:24.280Z,9.90
2018-03-14T18:19:51.163Z,10.40
2018-03-14T18:22:18.096Z,13.47
2018-03-14T18:24:45.789Z,16.60
2018-03-14T18:27:12.738Z,15.95
2018-03-14T18:29:39.821Z,14.68
2018-03-14T18:32:06.716Z,13.07
2018-03-14T18:34:33.643Z,11.83
2018-03-14T18:37:01.317Z,14.10
2018-03-14T18:39:29.019Z,13.90
2018-03-14T18:41:55.912Z,10.43
2018-03-14T18:44:22.855Z,10.00
2018-03-14T18:46:49.772Z,10.30
2018-03-14T18:49:16.730Z,10.43
2018-03-14T18:51:43.628Z,9.13
2018-03-14T18:54:10.604Z,9.80
2018-03-14T18:56:37.564Z,12.10
2018-03-14T18:59:04.850Z,10.63
2018-03-14T19:01:31.854Z,10.50
2018-03-14T19:03:58.760Z,10.15
2018-03-14T19:06:25.695Z,12.07
2018-03-14T19:08:53.324Z,11.63
2018-03-14T19:11:20.345Z,11.27
2018-03-14T19:13:47.365Z,11.98
2018-03-14T19:16:14.347Z,13.13
2018-03-14T19:18:41.432Z,12.32
2018-03-14T19:21:08.389Z,13.52
2018-03-14T19:23:36.041Z,11.35
2018-03-14T19:26:02.979Z,11.48
2018-03-14T19:28:29.943Z,10.57
2018-03-14T19:30:57.573Z,10.48
2018-03-14T19:33:24.523Z,11.27
2018-03-14T19:35:51.464Z,10.98
2018-03-14T19:38:18.411Z,10.35
2018-03-14T19:40:45.387Z,10.80
2018-03-14T19:43:13.024Z,11.80
2018-03-14T19:45:39.941Z,10.77
2018-03-14T19:48:06.891Z,11.55
2018-03-14T19:50:33.824Z,13.18
2018-03-14T19:53:00.804Z,12.00
2018-03-14T19:55:27.709Z,11.88
2018-03-14T19:57:54.660Z,12.73
2018-03-14T20:00:21.560Z,11.65
2018-03-14T20:02:48.534Z,11.93
2018-03-14T20:05:16.257Z,12.52
2018-03-14T20:07:43.212Z,12.32
2018-03-14T20:10:10.164Z,11.02
2018-03-14T20:12:37.034Z,11.55
2018-03-14T20:15:04.762Z,10.82
2018-03-14T20:17:31.660Z,10.77
2018-03-14T20:19:58.612Z,11.70
2018-03-14T20:22:25.572Z,12.37
2018-03-14T20:24:52.448Z,11.95
2018-03-14T20:27:19.451Z,10.82
2018-03-14T20:29:46.391Z,11.43
2018-03-14T20:32:13.336Z,11.70
2018-03-14T20:34:40.212Z,10.68
2018-03-14T20:37:07.212Z,10.68
2018-03-14T20:39:34.832Z,12.02
2018-03-14T20:42:01.821Z,10.32
2018-03-14T20:44:29.493Z,10.95
2018-03-14T20:46:57.111Z,10.95
2018-03-14T20:49:24.063Z,11.73
2018-03-14T20:51:51.000Z,12.05
2018-03-14T20:54:17.896Z,13.30
2018-03-14T20:56:44.863Z,12.60
2018-03-14T20:59:11.750Z,12.55
2018-03-14T21:01:38.630Z,13.23
2018-03-14T21:04:05.580Z,12.32
2018-03-14T21:06:33.505Z,14.32
2018-03-14T21:09:00.420Z,12.32
2018-03-14T21:11:27.364Z,13.40
2018-03-14T21:13:54.244Z,13.52
2018-03-14T21:16:21.188Z,14.20
2018-03-14T21:18:48.074Z,14.75
2018-03-14T21:21:15.036Z,13.95
2018-03-14T21:23:41.920Z,15.50
2018-03-14T21:26:08.792Z,14.23
2018-03-14T21:28:36.479Z,14.85
2018-03-14T21:31:03.373Z,14.15
2018-03-14T21:33:30.349Z,18.20
2018-03-14T21:35:57.248Z,15.23
2018-03-14T21:38:25.718Z,16.25
2018-03-14T21:40:54.205Z,15.20
2018-03-14T21:43:21.294Z,15.70
2018-03-14T21:45:48.300Z,14.45
2018-03-14T21:48:15.233Z,15.32
2018-03-14T21:50:42.729Z,15.13
2018-03-14T21:53:09.785Z,16.40
2018-03-14T21:55:38.631Z,17.48
2018-03-14T21:58:06.356Z,15.70
2018-03-14T22:00:33.648Z,16.27
2018-03-14T22:03:01.367Z,16.33
2018-03-14T22:05:29.398Z,17.70
2018-03-14T22:07:56.527Z,17.17
2018-03-14T22:10:23.444Z,16.80
2018-03-14T22:12:50.452Z,16.42
2018-03-14T22:15:17.390Z,15.55
2018-03-14T22:17:44.341Z,15.80
2018-03-14T22:20:11.237Z,17.00
2018-03-14T22:22:38.918Z,19.00
2018-03-14T22:25:05.880Z,17.87
2018-03-14T22:27:32.782Z,15.52
2018-03-14T22:29:59.740Z,16.70
2018-03-14T22:32:27.150Z,16.77
2018-03-14T22:34:54.102Z,16.42
2018-03-14T22:37:22.314Z,16.45
2018-03-14T22:39:50.339Z,19.40
2018-03-14T22:42:17.389Z,16.33
2018-03-14T22:44:56.940Z,16.65
2018-03-14T22:47:30.975Z,16.08
2018-03-14T22:49:57.916Z,17.35
2018-03-14T22:52:31.613Z,15.73
2018-03-14T22:54:58.558Z,15.90
2018-03-14T22:57:28.166Z,15.55
2018-03-14T22:59:55.111Z,16.50
2018-03-14T23:02:28.022Z,18.15
2018-03-14T23:05:07.471Z,16.35
2018-03-14T23:07:48.057Z,19.10
2018-03-14T23:10:26.677Z,17.92
2018-03-14T23:12:54.370Z,16.23
2018-03-14T23:15:32.500Z,17.87
2018-03-14T23:18:00.163Z,17.00
2018-03-14T23:20:37.790Z,18.05
2018-03-14T23:23:17.064Z,16.50
2018-03-14T23:25:44.741Z,17.70
2018-03-14T23:28:11.757Z,15.68
2018-03-14T23:30:38.691Z,18.17
2018-03-14T23:33:06.422Z,15.38
2018-03-14T23:35:33.358Z,15.63
2018-03-14T23:38:02.983Z,16.58
2018-03-14T23:40:30.462Z,15.80
2018-03-14T23:42:57.506Z,16.37
2018-03-14T23:45:26.348Z,18.05
2018-03-14T23:47:53.772Z,15.48
2018-03-14T23:50:21.471Z,16.33
2018-03-14T23:52:48.414Z,16.48
2018-03-14T23:55:15.296Z,15.48
2018-03-14T23:57:56.574Z,14.95
